sensor_id;sensor_type;location;lat;lon;timestamp;temperature;humidity
20155;DHT22;10238;49.556;10.956;2023-06-10T00:00:39;15.70;99.90
20155;DHT22;10238;49.556;10.956;2023-06-10T00:03:28;15.70;99.90
20155;DHT22;10238;49.556;10.956;2023-06-10T00:06:16;15.70;99.90
20155;DHT22;10238;49.556;10.956;2023-06-10T00:09:04;15.60;99.90
20155;DHT22;10238;49.556;10.956;2023-06-10T00:11:53;15.50;99.90
20155;DHT22;10238;49.556;10.956;2023-06-10T00:14:41;15.50;99.90
20155;DHT22;10238;49.556;10.956;2023-06-10T00:17:30;15.50;99.90
20155;DHT22;10238;49.556;10.956;2023-06-10T00:20:18;15.50;99.90
20155;DHT22;10238;49.556;10.956;2023-06-10T00:23:09;15.50;99.90
20155;DHT22;10238;49.556;10.956;2023-06-10T00:25:58;15.50;99.90
20155;DHT22;10238;49.556;10.956;2023-06-10T00:28:46;15.40;99.90
20155;DHT22;10238;49.556;10.956;2023-06-10T00:31:34;15.40;99.90
20155;DHT22;10238;49.556;10.956;2023-06-10T00:34:24;15.40;99.90
20155;DHT22;10238;49.556;10.956;2023-06-10T00:37:12;15.30;99.90
20155;DHT22;10238;49.556;10.956;2023-06-10T00:40:00;15.20;99.90
20155;DHT22;10238;49.556;10.956;2023-06-10T00:42:47;15.20;99.90
20155;DHT22;10238;49.556;10.956;2023-06-10T00:45:35;15.10;99.90
20155;DHT22;10238;49.556;10.956;2023-06-10T00:48:24;15.10;99.90
20155;DHT22;10238;49.556;10.956;2023-06-10T00:51:15;15.00;99.90
20155;DHT22;10238;49.556;10.956;2023-06-10T00:54:04;15.00;99.90
20155;DHT22;10238;49.556;10.956;2023-06-10T00:56:53;15.00;99.90
20155;DHT22;10238;49.556;10.956;2023-06-10T00:59:44;15.00;99.90
20155;DHT22;10238;49.556;10.956;2023-06-10T01:02:35;14.90;99.90
20155;DHT22;10238;49.556;10.956;2023-06-10T01:05:23;14.90;99.90
20155;DHT22;10238;49.556;10.956;2023-06-10T01:08:19;14.80;99.90
20155;DHT22;10238;49.556;10.956;2023-06-10T01:11:21;14.80;99.90
20155;DHT22;10238;49.556;10.956;2023-06-10T01:14:13;14.70;99.90
20155;DHT22;10238;49.556;10.956;2023-06-10T01:17:01;14.70;99.90
20155;DHT22;10238;49.556;10.956;2023-06-10T01:19:54;14.70;99.90
20155;DHT22;10238;49.556;10.956;2023-06-10T01:22:43;14.60;99.90
20155;DHT22;10238;49.556;10.956;2023-06-10T01:25:31;14.70;99.90
20155;DHT22;10238;49.556;10.956;2023-06-10T01:28:29;14.70;99.90
20155;DHT22;10238;49.556;10.956;2023-06-10T01:31:28;14.70;99.90
20155;DHT22;10238;49.556;10.956;2023-06-10T01:34:23;14.60;99.90
20155;DHT22;10238;49.556;10.956;2023-06-10T01:37:18;14.60;99.90
20155;DHT22;10238;49.556;10.956;2023-06-10T01:40:11;14.50;99.90
20155;DHT22;10238;49.556;10.956;2023-06-10T01:42:59;14.50;99.90
20155;DHT22;10238;49.556;10.956;2023-06-10T01:45:47;14.50;99.90
20155;DHT22;10238;49.556;10.956;2023-06-10T01:48:37;14.50;99.90
20155;DHT22;10238;49.556;10.956;2023-06-10T01:51:25;14.50;99.90
20155;DHT22;10238;49.556;10.956;2023-06-10T01:54:12;14.50;99.90
20155;DHT22;10238;49.556;10.956;2023-06-10T01:57:01;14.40;99.90
20155;DHT22;10238;49.556;10.956;2023-06-10T01:59:49;14.40;99.90
20155;DHT22;10238;49.556;10.956;2023-06-10T02:02:37;14.30;99.90
20155;DHT22;10238;49.556;10.956;2023-06-10T02:05:25;14.20;99.90
20155;DHT22;10238;49.556;10.956;2023-06-10T02:08:12;14.30;99.90
20155;DHT22;10238;49.556;10.956;2023-06-10T02:11:00;14.20;99.90
20155;DHT22;10238;49.556;10.956;2023-06-10T02:13:49;14.20;99.90
20155;DHT22;10238;49.556;10.956;2023-06-10T02:16:37;14.20;99.90
20155;DHT22;10238;49.556;10.956;2023-06-10T02:19:25;14.10;99.90
20155;DHT22;10238;49.556;10.956;2023-06-10T02:22:14;14.10;99.90
20155;DHT22;10238;49.556;10.956;2023-06-10T02:25:01;14.00;99.90
20155;DHT22;10238;49.556;10.956;2023-06-10T02:27:50;14.00;99.90
20155;DHT22;10238;49.556;10.956;2023-06-10T02:30:41;14.10;99.90
20155;DHT22;10238;49.556;10.956;2023-06-10T02:33:29;14.20;99.90
20155;DHT22;10238;49.556;10.956;2023-06-10T02:36:17;14.10;99.90
20155;DHT22;10238;49.556;10.956;2023-06-10T02:39:05;14.00;99.90
20155;DHT22;10238;49.556;10.956;2023-06-10T02:41:52;13.90;99.90
20155;DHT22;10238;49.556;10.956;2023-06-10T02:44:40;13.80;99.90
20155;DHT22;10238;49.556;10.956;2023-06-10T02:47:29;13.80;99.90
20155;DHT22;10238;49.556;10.956;2023-06-10T02:50:17;13.80;99.90
20155;DHT22;10238;49.556;10.956;2023-06-10T02:53:05;13.80;99.90
20155;DHT22;10238;49.556;10.956;2023-06-10T02:55:53;13.70;99.90
20155;DHT22;10238;49.556;10.956;2023-06-10T02:58:40;13.80;99.90
20155;DHT22;10238;49.556;10.956;2023-06-10T03:01:28;13.70;99.90
20155;DHT22;10238;49.556;10.956;2023-06-10T03:04:19;13.70;99.90
20155;DHT22;10238;49.556;10.956;2023-06-10T03:07:07;13.70;99.90
20155;DHT22;10238;49.556;10.956;2023-06-10T03:09:57;13.60;99.90
20155;DHT22;10238;49.556;10.956;2023-06-10T03:12:44;13.60;99.90
20155;DHT22;10238;49.556;10.956;2023-06-10T03:15:32;13.60;99.90
20155;DHT22;10238;49.556;10.956;2023-06-10T03:18:20;13.50;99.90
20155;DHT22;10238;49.556;10.956;2023-06-10T03:21:10;13.50;99.90
20155;DHT22;10238;49.556;10.956;2023-06-10T03:23:58;13.50;99.90
20155;DHT22;10238;49.556;10.956;2023-06-10T03:26:46;13.50;99.90
20155;DHT22;10238;49.556;10.956;2023-06-10T03:29:33;13.50;99.90
20155;DHT22;10238;49.556;10.956;2023-06-10T03:32:22;13.50;99.90
20155;DHT22;10238;49.556;10.956;2023-06-10T03:35:10;13.50;99.90
20155;DHT22;10238;49.556;10.956;2023-06-10T03:37:59;13.50;99.90
20155;DHT22;10238;49.556;10.956;2023-06-10T03:40:47;13.50;99.90
20155;DHT22;10238;49.556;10.956;2023-06-10T03:43:35;13.50;99.90
20155;DHT22;10238;49.556;10.956;2023-06-10T03:46:22;13.60;99.90
20155;DHT22;10238;49.556;10.956;2023-06-10T03:49:10;13.60;99.90
20155;DHT22;10238;49.556;10.956;2023-06-10T03:51:58;13.70;99.90
20155;DHT22;10238;49.556;10.956;2023-06-10T03:54:47;13.70;99.90
20155;DHT22;10238;49.556;10.956;2023-06-10T03:57:35;13.60;99.90
20155;DHT22;10238;49.556;10.956;2023-06-10T04:00:22;13.60;99.90
20155;DHT22;10238;49.556;10.956;2023-06-10T04:03:10;13.70;99.90
20155;DHT22;10238;49.556;10.956;2023-06-10T04:06:01;13.60;99.90
20155;DHT22;10238;49.556;10.956;2023-06-10T04:08:49;13.70;99.90
20155;DHT22;10238;49.556;10.956;2023-06-10T04:11:38;13.70;99.90
20155;DHT22;10238;49.556;10.956;2023-06-10T04:14:25;13.70;99.90
20155;DHT22;10238;49.556;10.956;2023-06-10T04:17:13;13.70;99.90
20155;DHT22;10238;49.556;10.956;2023-06-10T04:20:02;13.80;99.90
20155;DHT22;10238;49.556;10.956;2023-06-10T04:22:53;13.80;99.90
20155;DHT22;10238;49.556;10.956;2023-06-10T04:25:40;13.90;99.90
20155;DHT22;10238;49.556;10.956;2023-06-10T04:28:29;13.90;99.90
20155;DHT22;10238;49.556;10.956;2023-06-10T04:31:17;13.90;99.90
20155;DHT22;10238;49.556;10.956;2023-06-10T04:34:04;14.00;99.90
20155;DHT22;10238;49.556;10.956;2023-06-10T04:36:54;13.90;99.90
20155;DHT22;10238;49.556;10.956;2023-06-10T04:39:41;14.00;99.90
20155;DHT22;10238;49.556;10.956;2023-06-10T04:42:29;14.10;99.90
20155;DHT22;10238;49.556;10.956;2023-06-10T04:45:18;14.10;99.90
20155;DHT22;10238;49.556;10.956;2023-06-10T04:48:06;14.20;99.90
20155;DHT22;10238;49.556;10.956;2023-06-10T04:50:54;14.20;99.90
20155;DHT22;10238;49.556;10.956;2023-06-10T04:53:42;14.20;99.90
20155;DHT22;10238;49.556;10.956;2023-06-10T04:56:30;14.30;99.90
20155;DHT22;10238;49.556;10.956;2023-06-10T04:59:18;14.40;99.90
20155;DHT22;10238;49.556;10.956;2023-06-10T05:02:07;14.40;99.90
20155;DHT22;10238;49.556;10.956;2023-06-10T05:04:55;14.50;99.90
20155;DHT22;10238;49.556;10.956;2023-06-10T05:07:44;14.50;99.90
20155;DHT22;10238;49.556;10.956;2023-06-10T05:10:32;14.60;99.90
20155;DHT22;10238;49.556;10.956;2023-06-10T05:13:20;14.60;99.90
20155;DHT22;10238;49.556;10.956;2023-06-10T05:16:07;14.70;99.90
20155;DHT22;10238;49.556;10.956;2023-06-10T05:18:56;14.80;99.90
20155;DHT22;10238;49.556;10.956;2023-06-10T05:21:50;14.90;99.90
20155;DHT22;10238;49.556;10.956;2023-06-10T05:24:38;15.00;99.90
20155;DHT22;10238;49.556;10.956;2023-06-10T05:27:26;15.10;99.90
20155;DHT22;10238;49.556;10.956;2023-06-10T05:30:13;15.20;99.90
20155;DHT22;10238;49.556;10.956;2023-06-10T05:33:01;15.30;99.90
20155;DHT22;10238;49.556;10.956;2023-06-10T05:35:54;15.40;99.90
20155;DHT22;10238;49.556;10.956;2023-06-10T05:38:42;15.50;99.90
20155;DHT22;10238;49.556;10.956;2023-06-10T05:41:29;15.60;99.90
20155;DHT22;10238;49.556;10.956;2023-06-10T05:44:17;15.70;99.90
20155;DHT22;10238;49.556;10.956;2023-06-10T05:47:05;15.80;99.90
20155;DHT22;10238;49.556;10.956;2023-06-10T05:49:52;15.90;99.90
20155;DHT22;10238;49.556;10.956;2023-06-10T05:52:41;16.00;99.90
20155;DHT22;10238;49.556;10.956;2023-06-10T05:55:34;16.20;99.90
20155;DHT22;10238;49.556;10.956;2023-06-10T05:58:22;16.30;99.90
20155;DHT22;10238;49.556;10.956;2023-06-10T06:01:10;16.40;99.90
20155;DHT22;10238;49.556;10.956;2023-06-10T06:03:58;16.60;99.90
20155;DHT22;10238;49.556;10.956;2023-06-10T06:06:45;16.80;99.90
20155;DHT22;10238;49.556;10.956;2023-06-10T06:09:41;17.00;99.90
20155;DHT22;10238;49.556;10.956;2023-06-10T06:12:29;17.20;99.90
20155;DHT22;10238;49.556;10.956;2023-06-10T06:15:17;17.40;99.90
20155;DHT22;10238;49.556;10.956;2023-06-10T06:18:07;17.70;99.90
20155;DHT22;10238;49.556;10.956;2023-06-10T06:21:05;17.90;99.90
20155;DHT22;10238;49.556;10.956;2023-06-10T06:24:16;18.10;99.90
20155;DHT22;10238;49.556;10.956;2023-06-10T06:27:17;18.50;99.90
20155;DHT22;10238;49.556;10.956;2023-06-10T06:34:11;19.00;99.90
20155;DHT22;10238;49.556;10.956;2023-06-10T06:37:02;19.40;99.90
20155;DHT22;10238;49.556;10.956;2023-06-10T06:39:58;19.60;99.90
20155;DHT22;10238;49.556;10.956;2023-06-10T06:42:56;19.80;99.90
20155;DHT22;10238;49.556;10.956;2023-06-10T06:45:56;20.10;99.90
20155;DHT22;10238;49.556;10.956;2023-06-10T06:49:17;20.50;99.90
20155;DHT22;10238;49.556;10.956;2023-06-10T06:52:08;20.80;99.90
20155;DHT22;10238;49.556;10.956;2023-06-10T06:54:56;21.00;99.90
20155;DHT22;10238;49.556;10.956;2023-06-10T06:57:44;21.30;99.90
20155;DHT22;10238;49.556;10.956;2023-06-10T07:00:33;21.50;99.90
20155;DHT22;10238;49.556;10.956;2023-06-10T07:03:20;21.70;99.90
20155;DHT22;10238;49.556;10.956;2023-06-10T07:06:12;22.00;99.90
20155;DHT22;10238;49.556;10.956;2023-06-10T07:09:00;22.30;99.90
20155;DHT22;10238;49.556;10.956;2023-06-10T07:11:48;22.60;99.90
20155;DHT22;10238;49.556;10.956;2023-06-10T07:14:57;22.90;99.90
20155;DHT22;10238;49.556;10.956;2023-06-10T07:17:58;23.10;99.90
20155;DHT22;10238;49.556;10.956;2023-06-10T07:20:45;23.40;99.90
20155;DHT22;10238;49.556;10.956;2023-06-10T07:23:41;23.70;99.90
20155;DHT22;10238;49.556;10.956;2023-06-10T07:26:57;23.90;99.90
20155;DHT22;10238;49.556;10.956;2023-06-10T07:29:45;24.20;99.90
20155;DHT22;10238;49.556;10.956;2023-06-10T07:32:32;24.40;99.90
20155;DHT22;10238;49.556;10.956;2023-06-10T07:35:21;24.60;99.90
20155;DHT22;10238;49.556;10.956;2023-06-10T07:38:09;24.90;99.90
20155;DHT22;10238;49.556;10.956;2023-06-10T07:40:57;25.20;99.90
20155;DHT22;10238;49.556;10.956;2023-06-10T07:43:45;25.40;99.90
20155;DHT22;10238;49.556;10.956;2023-06-10T07:46:32;25.60;99.90
20155;DHT22;10238;49.556;10.956;2023-06-10T07:49:20;25.90;99.90
20155;DHT22;10238;49.556;10.956;2023-06-10T07:52:09;26.00;99.90
20155;DHT22;10238;49.556;10.956;2023-06-10T07:54:57;26.20;99.90
20155;DHT22;10238;49.556;10.956;2023-06-10T07:57:45;26.40;99.90
20155;DHT22;10238;49.556;10.956;2023-06-10T08:00:33;26.70;99.90
20155;DHT22;10238;49.556;10.956;2023-06-10T08:03:20;26.90;99.90
20155;DHT22;10238;49.556;10.956;2023-06-10T08:06:08;27.20;99.90
20155;DHT22;10238;49.556;10.956;2023-06-10T08:08:59;27.40;99.90
20155;DHT22;10238;49.556;10.956;2023-06-10T08:11:47;27.70;99.90
20155;DHT22;10238;49.556;10.956;2023-06-10T08:14:34;27.80;99.90
20155;DHT22;10238;49.556;10.956;2023-06-10T08:17:23;27.90;99.90
20155;DHT22;10238;49.556;10.956;2023-06-10T08:20:10;28.10;99.90
20155;DHT22;10238;49.556;10.956;2023-06-10T08:22:58;28.30;99.90
20155;DHT22;10238;49.556;10.956;2023-06-10T08:25:47;28.70;99.90
20155;DHT22;10238;49.556;10.956;2023-06-10T08:28:35;28.40;99.90
20155;DHT22;10238;49.556;10.956;2023-06-10T08:31:22;28.60;99.90
20155;DHT22;10238;49.556;10.956;2023-06-10T08:34:10;28.90;99.90
20155;DHT22;10238;49.556;10.956;2023-06-10T08:36:58;29.10;99.70
20155;DHT22;10238;49.556;10.956;2023-06-10T08:39:51;29.20;99.90
20155;DHT22;10238;49.556;10.956;2023-06-10T08:42:44;29.20;99.70
20155;DHT22;10238;49.556;10.956;2023-06-10T08:45:37;29.10;99.90
20155;DHT22;10238;49.556;10.956;2023-06-10T08:48:26;29.00;99.90
20155;DHT22;10238;49.556;10.956;2023-06-10T08:51:17;29.60;99.90
20155;DHT22;10238;49.556;10.956;2023-06-10T08:54:21;30.10;99.90
20155;DHT22;10238;49.556;10.956;2023-06-10T08:57:12;30.40;98.80
20155;DHT22;10238;49.556;10.956;2023-06-10T09:00:03;30.30;97.90
20155;DHT22;10238;49.556;10.956;2023-06-10T09:02:55;30.30;96.20
20155;DHT22;10238;49.556;10.956;2023-06-10T09:05:47;30.40;95.90
20155;DHT22;10238;49.556;10.956;2023-06-10T09:08:36;30.40;98.60
20155;DHT22;10238;49.556;10.956;2023-06-10T09:11:26;30.30;98.00
20155;DHT22;10238;49.556;10.956;2023-06-10T09:14:14;30.50;96.20
20155;DHT22;10238;49.556;10.956;2023-06-10T09:17:05;30.80;97.70
20155;DHT22;10238;49.556;10.956;2023-06-10T09:19:53;31.00;97.80
20155;DHT22;10238;49.556;10.956;2023-06-10T09:22:43;31.00;97.90
20155;DHT22;10238;49.556;10.956;2023-06-10T09:25:36;31.20;97.40
20155;DHT22;10238;49.556;10.956;2023-06-10T09:28:25;31.50;96.90
20155;DHT22;10238;49.556;10.956;2023-06-10T09:31:13;31.70;96.30
20155;DHT22;10238;49.556;10.956;2023-06-10T09:34:07;31.70;95.60
20155;DHT22;10238;49.556;10.956;2023-06-10T09:36:58;31.40;93.50
20155;DHT22;10238;49.556;10.956;2023-06-10T09:40:02;31.10;94.30
20155;DHT22;10238;49.556;10.956;2023-06-10T09:42:53;31.00;95.90
20155;DHT22;10238;49.556;10.956;2023-06-10T09:45:42;30.60;95.20
20155;DHT22;10238;49.556;10.956;2023-06-10T09:48:34;30.40;96.70
20155;DHT22;10238;49.556;10.956;2023-06-10T09:51:24;30.30;94.40
20155;DHT22;10238;49.556;10.956;2023-06-10T09:54:12;30.40;96.90
20155;DHT22;10238;49.556;10.956;2023-06-10T09:57:07;30.60;96.20
20155;DHT22;10238;49.556;10.956;2023-06-10T09:59:56;30.90;95.60
20155;DHT22;10238;49.556;10.956;2023-06-10T10:02:45;30.60;95.20
20155;DHT22;10238;49.556;10.956;2023-06-10T10:05:34;30.80;94.70
20155;DHT22;10238;49.556;10.956;2023-06-10T10:08:24;30.70;95.70
20155;DHT22;10238;49.556;10.956;2023-06-10T10:11:12;30.70;92.40
20155;DHT22;10238;49.556;10.956;2023-06-10T10:14:04;30.50;95.40
20155;DHT22;10238;49.556;10.956;2023-06-10T10:16:55;31.00;95.30
20155;DHT22;10238;49.556;10.956;2023-06-10T10:19:48;31.60;95.00
20155;DHT22;10238;49.556;10.956;2023-06-10T10:22:39;31.20;93.60
20155;DHT22;10238;49.556;10.956;2023-06-10T10:25:34;31.20;94.30
20155;DHT22;10238;49.556;10.956;2023-06-10T10:28:30;30.90;94.40
20155;DHT22;10238;49.556;10.956;2023-06-10T10:31:27;30.70;94.70
20155;DHT22;10238;49.556;10.956;2023-06-10T10:34:21;30.20;95.30
20155;DHT22;10238;49.556;10.956;2023-06-10T10:37:14;29.80;92.80
20155;DHT22;10238;49.556;10.956;2023-06-10T10:40:03;30.00;96.50
20155;DHT22;10238;49.556;10.956;2023-06-10T10:42:56;30.50;96.50
20155;DHT22;10238;49.556;10.956;2023-06-10T10:45:46;30.90;96.20
20155;DHT22;10238;49.556;10.956;2023-06-10T10:48:47;31.00;94.80
20155;DHT22;10238;49.556;10.956;2023-06-10T10:51:54;31.00;94.00
20155;DHT22;10238;49.556;10.956;2023-06-10T10:54:45;31.20;93.90
20155;DHT22;10238;49.556;10.956;2023-06-10T10:57:38;31.00;92.20
20155;DHT22;10238;49.556;10.956;2023-06-10T11:00:32;31.00;92.90
20155;DHT22;10238;49.556;10.956;2023-06-10T11:03:28;30.90;94.30
20155;DHT22;10238;49.556;10.956;2023-06-10T11:06:18;31.10;91.20
20155;DHT22;10238;49.556;10.956;2023-06-10T11:09:25;31.30;94.00
20155;DHT22;10238;49.556;10.956;2023-06-10T11:12:22;31.30;93.60
20155;DHT22;10238;49.556;10.956;2023-06-10T11:15:10;30.60;93.30
20155;DHT22;10238;49.556;10.956;2023-06-10T11:21:23;29.90;94.30
20155;DHT22;10238;49.556;10.956;2023-06-10T11:24:14;30.00;92.70
20155;DHT22;10238;49.556;10.956;2023-06-10T11:27:16;30.00;92.10
20155;DHT22;10238;49.556;10.956;2023-06-10T11:30:18;29.80;92.90
20155;DHT22;10238;49.556;10.956;2023-06-10T11:33:41;29.60;95.50
20155;DHT22;10238;49.556;10.956;2023-06-10T11:36:43;29.80;95.10
20155;DHT22;10238;49.556;10.956;2023-06-10T11:39:32;29.80;95.20
20155;DHT22;10238;49.556;10.956;2023-06-10T11:42:23;30.10;94.50
20155;DHT22;10238;49.556;10.956;2023-06-10T11:45:14;30.20;95.30
20155;DHT22;10238;49.556;10.956;2023-06-10T11:48:03;30.00;95.70
20155;DHT22;10238;49.556;10.956;2023-06-10T11:50:52;30.10;95.30
20155;DHT22;10238;49.556;10.956;2023-06-10T11:53:40;30.40;95.80
20155;DHT22;10238;49.556;10.956;2023-06-10T11:56:31;30.60;95.20
20155;DHT22;10238;49.556;10.956;2023-06-10T11:59:27;31.00;95.20
20155;DHT22;10238;49.556;10.956;2023-06-10T12:02:15;30.80;96.00
20155;DHT22;10238;49.556;10.956;2023-06-10T12:05:10;30.80;95.30
20155;DHT22;10238;49.556;10.956;2023-06-10T12:08:10;31.10;94.90
20155;DHT22;10238;49.556;10.956;2023-06-10T12:10:59;31.60;95.30
20155;DHT22;10238;49.556;10.956;2023-06-10T12:13:48;32.10;93.40
20155;DHT22;10238;49.556;10.956;2023-06-10T12:16:37;31.90;92.20
20155;DHT22;10238;49.556;10.956;2023-06-10T12:19:25;32.00;90.40
20155;DHT22;10238;49.556;10.956;2023-06-10T12:22:13;31.70;91.90
20155;DHT22;10238;49.556;10.956;2023-06-10T12:25:05;31.30;95.60
20155;DHT22;10238;49.556;10.956;2023-06-10T12:27:55;31.40;95.40
20155;DHT22;10238;49.556;10.956;2023-06-10T12:30:45;31.60;95.50
20155;DHT22;10238;49.556;10.956;2023-06-10T12:33:33;31.50;93.90
20155;DHT22;10238;49.556;10.956;2023-06-10T12:36:20;31.10;95.20
20155;DHT22;10238;49.556;10.956;2023-06-10T12:39:09;31.20;92.70
20155;DHT22;10238;49.556;10.956;2023-06-10T12:41:58;31.90;93.90
20155;DHT22;10238;49.556;10.956;2023-06-10T12:44:53;32.40;94.40
20155;DHT22;10238;49.556;10.956;2023-06-10T12:47:46;31.90;94.40
20155;DHT22;10238;49.556;10.956;2023-06-10T12:50:35;31.60;94.50
20155;DHT22;10238;49.556;10.956;2023-06-10T12:53:25;31.00;91.50
20155;DHT22;10238;49.556;10.956;2023-06-10T12:56:14;31.30;91.80
20155;DHT22;10238;49.556;10.956;2023-06-10T12:59:03;31.90;93.10
20155;DHT22;10238;49.556;10.956;2023-06-10T13:01:55;32.10;90.50
20155;DHT22;10238;49.556;10.956;2023-06-10T13:04:43;32.20;92.00
20155;DHT22;10238;49.556;10.956;2023-06-10T13:07:31;32.00;89.90
20155;DHT22;10238;49.556;10.956;2023-06-10T13:10:20;31.70;91.70
20155;DHT22;10238;49.556;10.956;2023-06-10T13:13:10;32.00;88.30
20155;DHT22;10238;49.556;10.956;2023-06-10T13:16:02;31.90;86.50
20155;DHT22;10238;49.556;10.956;2023-06-10T13:18:50;32.30;91.90
20155;DHT22;10238;49.556;10.956;2023-06-10T13:21:37;33.10;92.50
20155;DHT22;10238;49.556;10.956;2023-06-10T13:24:26;33.80;88.60
20155;DHT22;10238;49.556;10.956;2023-06-10T13:27:14;33.60;89.20
20155;DHT22;10238;49.556;10.956;2023-06-10T13:30:03;33.30;92.10
20155;DHT22;10238;49.556;10.956;2023-06-10T13:32:52;32.70;91.10
20155;DHT22;10238;49.556;10.956;2023-06-10T13:35:39;32.70;90.40
20155;DHT22;10238;49.556;10.956;2023-06-10T13:38:27;32.50;91.70
20155;DHT22;10238;49.556;10.956;2023-06-10T13:41:15;31.90;89.90
20155;DHT22;10238;49.556;10.956;2023-06-10T13:44:03;31.70;89.60
20155;DHT22;10238;49.556;10.956;2023-06-10T13:46:52;31.70;90.20
20155;DHT22;10238;49.556;10.956;2023-06-10T13:49:42;32.00;88.50
20155;DHT22;10238;49.556;10.956;2023-06-10T13:52:30;32.60;90.30
20155;DHT22;10238;49.556;10.956;2023-06-10T13:55:17;33.00;86.90
20155;DHT22;10238;49.556;10.956;2023-06-10T13:58:06;33.20;87.90
20155;DHT22;10238;49.556;10.956;2023-06-10T14:00:53;33.40;86.10
20155;DHT22;10238;49.556;10.956;2023-06-10T14:03:41;33.60;86.80
20155;DHT22;10238;49.556;10.956;2023-06-10T14:06:33;32.80;84.60
20155;DHT22;10238;49.556;10.956;2023-06-10T14:09:21;32.40;87.60
20155;DHT22;10238;49.556;10.956;2023-06-10T14:12:09;32.60;87.80
20155;DHT22;10238;49.556;10.956;2023-06-10T14:14:57;32.50;87.20
20155;DHT22;10238;49.556;10.956;2023-06-10T14:17:44;32.40;86.90
20155;DHT22;10238;49.556;10.956;2023-06-10T14:20:32;32.10;88.00
20155;DHT22;10238;49.556;10.956;2023-06-10T14:23:21;31.80;89.20
20155;DHT22;10238;49.556;10.956;2023-06-10T14:26:11;32.10;89.10
20155;DHT22;10238;49.556;10.956;2023-06-10T14:28:58;32.70;88.60
20155;DHT22;10238;49.556;10.956;2023-06-10T14:31:46;33.10;88.80
20155;DHT22;10238;49.556;10.956;2023-06-10T14:34:34;33.30;88.70
20155;DHT22;10238;49.556;10.956;2023-06-10T14:37:25;33.50;86.50
20155;DHT22;10238;49.556;10.956;2023-06-10T14:40:15;33.80;86.10
20155;DHT22;10238;49.556;10.956;2023-06-10T14:43:02;34.30;85.20
20155;DHT22;10238;49.556;10.956;2023-06-10T14:45:56;34.30;82.40
20155;DHT22;10238;49.556;10.956;2023-06-10T14:48:44;32.90;85.20
20155;DHT22;10238;49.556;10.956;2023-06-10T14:51:32;32.50;86.80
20155;DHT22;10238;49.556;10.956;2023-06-10T14:54:22;32.20;86.10
20155;DHT22;10238;49.556;10.956;2023-06-10T14:57:14;31.70;85.80
20155;DHT22;10238;49.556;10.956;2023-06-10T15:00:03;31.40;86.30
20155;DHT22;10238;49.556;10.956;2023-06-10T15:02:52;31.30;86.20
20155;DHT22;10238;49.556;10.956;2023-06-10T15:05:42;31.00;86.30
20155;DHT22;10238;49.556;10.956;2023-06-10T15:08:29;31.10;88.80
20155;DHT22;10238;49.556;10.956;2023-06-10T15:11:17;31.50;89.70
20155;DHT22;10238;49.556;10.956;2023-06-10T15:14:07;31.20;87.00
20155;DHT22;10238;49.556;10.956;2023-06-10T15:16:54;30.90;86.00
20155;DHT22;10238;49.556;10.956;2023-06-10T15:19:44;30.60;89.20
20155;DHT22;10238;49.556;10.956;2023-06-10T15:22:32;30.90;85.60
20155;DHT22;10238;49.556;10.956;2023-06-10T15:25:24;31.40;90.00
20155;DHT22;10238;49.556;10.956;2023-06-10T15:28:17;31.50;90.10
20155;DHT22;10238;49.556;10.956;2023-06-10T15:31:06;31.50;89.10
20155;DHT22;10238;49.556;10.956;2023-06-10T15:33:54;30.90;90.40
20155;DHT22;10238;49.556;10.956;2023-06-10T15:36:42;30.40;90.60
20155;DHT22;10238;49.556;10.956;2023-06-10T15:39:29;30.10;91.80
20155;DHT22;10238;49.556;10.956;2023-06-10T15:42:33;29.80;93.90
20155;DHT22;10238;49.556;10.956;2023-06-10T15:45:21;29.70;94.00
20155;DHT22;10238;49.556;10.956;2023-06-10T15:48:09;29.50;94.70
20155;DHT22;10238;49.556;10.956;2023-06-10T15:50:57;29.40;95.50
20155;DHT22;10238;49.556;10.956;2023-06-10T15:53:45;29.30;95.90
20155;DHT22;10238;49.556;10.956;2023-06-10T15:56:33;29.20;96.10
20155;DHT22;10238;49.556;10.956;2023-06-10T15:59:22;29.10;96.60
20155;DHT22;10238;49.556;10.956;2023-06-10T16:02:10;29.00;96.10
20155;DHT22;10238;49.556;10.956;2023-06-10T16:04:58;28.80;96.40
20155;DHT22;10238;49.556;10.956;2023-06-10T16:07:45;28.60;96.60
20155;DHT22;10238;49.556;10.956;2023-06-10T16:10:34;28.50;96.60
20155;DHT22;10238;49.556;10.956;2023-06-10T16:13:21;28.50;96.50
20155;DHT22;10238;49.556;10.956;2023-06-10T16:16:10;28.50;96.40
20155;DHT22;10238;49.556;10.956;2023-06-10T16:18:58;28.80;95.60
20155;DHT22;10238;49.556;10.956;2023-06-10T16:21:46;29.30;95.60
20155;DHT22;10238;49.556;10.956;2023-06-10T16:24:34;29.80;95.40
20155;DHT22;10238;49.556;10.956;2023-06-10T16:27:22;30.20;94.10
20155;DHT22;10238;49.556;10.956;2023-06-10T16:30:12;30.60;95.10
20155;DHT22;10238;49.556;10.956;2023-06-10T16:33:02;31.00;93.80
20155;DHT22;10238;49.556;10.956;2023-06-10T16:35:51;31.40;93.00
20155;DHT22;10238;49.556;10.956;2023-06-10T16:38:38;31.50;92.00
20155;DHT22;10238;49.556;10.956;2023-06-10T16:41:26;31.80;93.50
20155;DHT22;10238;49.556;10.956;2023-06-10T16:44:14;32.20;92.60
20155;DHT22;10238;49.556;10.956;2023-06-10T16:47:03;32.30;92.60
20155;DHT22;10238;49.556;10.956;2023-06-10T16:49:53;32.40;92.00
20155;DHT22;10238;49.556;10.956;2023-06-10T16:52:41;32.40;91.30
20155;DHT22;10238;49.556;10.956;2023-06-10T16:55:29;32.70;92.20
20155;DHT22;10238;49.556;10.956;2023-06-10T16:58:16;32.80;87.00
20155;DHT22;10238;49.556;10.956;2023-06-10T17:01:06;32.80;88.10
20155;DHT22;10238;49.556;10.956;2023-06-10T17:03:55;32.60;90.80
20155;DHT22;10238;49.556;10.956;2023-06-10T17:06:45;32.60;86.80
20155;DHT22;10238;49.556;10.956;2023-06-10T17:09:32;32.50;90.00
20155;DHT22;10238;49.556;10.956;2023-06-10T17:12:20;32.50;90.70
20155;DHT22;10238;49.556;10.956;2023-06-10T17:15:08;32.20;91.00
20155;DHT22;10238;49.556;10.956;2023-06-10T17:17:57;31.90;91.10
20155;DHT22;10238;49.556;10.956;2023-06-10T17:20:45;31.40;90.60
20155;DHT22;10238;49.556;10.956;2023-06-10T17:23:40;31.30;91.20
20155;DHT22;10238;49.556;10.956;2023-06-10T17:26:28;30.80;90.80
20155;DHT22;10238;49.556;10.956;2023-06-10T17:29:16;30.40;90.40
20155;DHT22;10238;49.556;10.956;2023-06-10T17:32:04;30.10;91.60
20155;DHT22;10238;49.556;10.956;2023-06-10T17:34:52;29.90;90.10
20155;DHT22;10238;49.556;10.956;2023-06-10T17:37:40;29.10;91.70
20155;DHT22;10238;49.556;10.956;2023-06-10T17:40:29;28.40;90.50
20155;DHT22;10238;49.556;10.956;2023-06-10T17:43:22;28.00;90.60